Time;durP1;ratioP1;P1;durP2;ratioP2;P2;SDS_P1;SDS_P2;PMS_P1;PMS_P2;Temp;Humidity;BMP_temperature;BMP_pressure;BME280_temperature;BME280_humidity;BME280_pressure;Samples;Min_cycle;Max_cycle;Signal;HPM_P1;HPM_P2
2022/08/02 00:01:34;;;;;;;0.10;0.10;;;13.10;99.90;;;;;;5087237;28;20048;-78
2022/08/02 00:04:00;;;;;;;0.00;0.00;;;13.10;99.90;;;;;;5087184;28;20051;-78
2022/08/02 00:06:26;;;;;;;1.08;0.00;;;13.10;99.90;;;;;;5086979;28;20048;-78
2022/08/02 00:08:52;;;;;;;0.00;0.00;;;13.10;99.90;;;;;;5087386;28;20136;-78
2022/08/02 00:11:18;;;;;;;0.00;0.00;;;13.10;99.90;;;;;;5069776;28;20107;-78
2022/08/02 00:13:44;;;;;;;0.00;0.00;;;13.20;99.90;;;;;;5086803;28;20051;-78
2022/08/02 00:16:12;;;;;;;0.38;0.38;;;13.20;99.90;;;;;;5086963;28;20088;-78
2022/08/02 00:18:37;;;;;;;0.00;0.00;;;13.20;99.90;;;;;;5086922;28;20052;-78
2022/08/02 00:21:03;;;;;;;0.00;0.00;;;13.20;99.90;;;;;;5086667;28;20481;-78
2022/08/02 00:23:29;;;;;;;0.00;0.00;;;13.20;99.90;;;;;;5086739;28;20103;-78
2022/08/02 00:25:55;;;;;;;0.00;0.00;;;13.10;99.90;;;;;;5087149;28;20084;-78
2022/08/02 00:28:20;;;;;;;0.00;0.00;;;13.10;99.90;;;;;;5070147;28;20149;-78
2022/08/02 00:30:46;;;;;;;0.10;0.10;;;13.20;99.90;;;;;;5087291;28;20044;-78
2022/08/02 00:33:12;;;;;;;0.00;0.00;;;13.10;99.90;;;;;;5070444;28;20432;-78
2022/08/02 00:35:38;;;;;;;0.00;0.00;;;13.00;99.90;;;;;;5086623;28;20067;-78
2022/08/02 00:38:04;;;;;;;0.00;0.00;;;13.10;99.90;;;;;;5086693;28;20098;-78
2022/08/02 00:40:29;;;;;;;0.00;0.00;;;13.00;99.90;;;;;;5070018;28;20037;-78
2022/08/02 00:43:07;;;;;;;0.00;0.00;;;13.10;99.90;;;;;;5086410;28;20501;-78
2022/08/02 00:45:34;;;;;;;0.00;0.00;;;13.00;99.90;;;;;;5086449;28;20132;-78
2022/08/02 00:48:01;;;;;;;0.00;0.00;;;13.00;99.90;;;;;;5087040;28;20052;-78
2022/08/02 00:50:27;;;;;;;0.00;0.00;;;13.00;99.90;;;;;;5086494;28;20090;-78
2022/08/02 00:52:53;;;;;;;0.00;0.00;;;12.90;99.90;;;;;;5086329;28;20481;-78
2022/08/02 00:55:19;;;;;;;0.00;0.00;;;12.90;99.90;;;;;;5069700;28;20051;-78
2022/08/02 00:57:44;;;;;;;0.00;0.00;;;12.90;99.90;;;;;;5069592;28;20051;-78
2022/08/02 01:00:11;;;;;;;0.00;0.00;;;12.80;99.90;;;;;;5087016;28;20052;-77
2022/08/02 01:02:37;;;;;;;0.00;0.00;;;12.90;99.90;;;;;;5086456;28;20108;-78
2022/08/02 01:05:03;;;;;;;0.10;0.00;;;12.80;99.90;;;;;;5069617;28;20069;-78
2022/08/02 01:07:29;;;;;;;0.00;0.00;;;12.80;99.90;;;;;;5070129;28;20049;-78
2022/08/02 01:09:55;;;;;;;0.10;0.10;;;12.90;99.90;;;;;;5069273;28;20047;-78
2022/08/02 01:12:20;;;;;;;0.00;0.00;;;12.70;99.90;;;;;;5069952;28;20378;-78
2022/08/02 01:14:49;;;;;;;0.00;0.00;;;12.70;99.90;;;;;;5086345;28;20088;-78
2022/08/02 01:17:33;;;;;;;0.00;0.00;;;12.70;99.90;;;;;;5069282;28;20045;-78
2022/08/02 01:20:14;;;;;;;0.00;0.00;;;12.70;99.90;;;;;;5069725;28;20045;-78
2022/08/02 01:22:54;;;;;;;0.00;0.00;;;12.70;99.90;;;;;;5086168;28;20049;-78
2022/08/02 01:25:41;;;;;;;0.95;0.30;;;12.70;99.90;;;;;;5069841;28;20045;-78
2022/08/02 01:28:28;;;;;;;0.05;0.00;;;12.70;99.90;;;;;;5052712;28;20048;-78
2022/08/02 01:31:26;;;;;;;0.00;0.00;;;12.60;99.90;;;;;;5085842;28;20399;-78
2022/08/02 01:34:05;;;;;;;0.65;0.30;;;12.60;99.90;;;;;;5051693;28;20140;-78
2022/08/02 01:36:44;;;;;;;0.15;0.03;;;12.60;99.90;;;;;;5034904;28;20041;-78
2022/08/02 01:39:13;;;;;;;0.20;0.10;;;12.50;99.90;;;;;;5034918;28;20224;-78
2022/08/02 01:41:40;;;;;;;0.00;0.00;;;12.60;99.90;;;;;;5019154;28;20049;-78
2022/08/02 01:44:06;;;;;;;0.00;0.00;;;12.50;99.90;;;;;;5034883;28;20143;-78
2022/08/02 01:46:43;;;;;;;0.00;0.00;;;12.50;99.90;;;;;;5034880;28;20095;-78
2022/08/02 01:49:14;;;;;;;0.00;0.00;;;12.50;99.90;;;;;;5018447;28;20135;-78
2022/08/02 01:54:29;;;;;;;0.00;0.00;;;12.50;99.90;;;;;;5035298;28;20044;-78
2022/08/02 01:56:56;;;;;;;0.10;0.10;;;12.50;99.90;;;;;;5034668;28;20145;-78
2022/08/02 01:59:24;;;;;;;0.00;0.00;;;12.50;99.90;;;;;;5021749;28;20079;-78
2022/08/02 02:01:53;;;;;;;0.00;0.00;;;12.50;99.90;;;;;;5022150;28;20495;-78
2022/08/02 02:04:20;;;;;;;0.00;0.00;;;12.50;99.90;;;;;;5038482;28;20049;-78
2022/08/02 02:06:48;;;;;;;0.00;0.00;;;12.50;99.90;;;;;;5037694;28;20104;-78
2022/08/02 02:09:15;;;;;;;0.00;0.00;;;12.40;99.90;;;;;;5021675;28;20148;-78
2022/08/02 02:11:45;;;;;;;0.00;0.00;;;12.40;99.90;;;;;;5053688;28;20056;-78
2022/08/02 02:14:12;;;;;;;0.00;0.00;;;12.40;99.90;;;;;;5089205;28;20536;-78
2022/08/02 02:16:41;;;;;;;0.10;0.10;;;12.40;99.90;;;;;;5072315;28;20063;-78
2022/08/02 02:19:08;;;;;;;0.00;0.00;;;12.30;99.90;;;;;;5072669;28;20143;-78
2022/08/02 02:21:33;;;;;;;0.00;0.00;;;12.30;99.90;;;;;;5089799;28;20052;-78
2022/08/02 02:23:59;;;;;;;0.75;0.38;;;12.30;99.90;;;;;;5055874;28;20041;-78
2022/08/02 02:26:27;;;;;;;0.00;0.00;;;12.30;99.90;;;;;;5072212;28;20382;-78
2022/08/02 02:28:54;;;;;;;0.00;0.00;;;12.30;99.90;;;;;;5088738;28;20493;-78
2022/08/02 02:31:20;;;;;;;0.00;0.00;;;12.20;99.90;;;;;;5088786;28;20041;-78
2022/08/02 02:33:51;;;;;;;0.32;0.10;;;12.30;99.90;;;;;;5089675;28;20090;-77
2022/08/02 02:36:19;;;;;;;0.00;0.00;;;12.30;99.90;;;;;;5089590;28;20405;-77
2022/08/02 02:38:47;;;;;;;0.00;0.00;;;12.20;99.90;;;;;;5088801;28;20052;-78
2022/08/02 02:41:15;;;;;;;0.00;0.00;;;12.20;99.90;;;;;;5072101;28;20049;-77
2022/08/02 02:43:43;;;;;;;0.03;0.03;;;12.20;99.90;;;;;;5071783;28;20044;-77
2022/08/02 02:46:11;;;;;;;0.00;0.00;;;12.20;99.90;;;;;;5071890;28;20056;-77
2022/08/02 02:48:37;;;;;;;0.00;0.00;;;12.20;99.90;;;;;;5038561;28;20053;-77
2022/08/02 02:51:05;;;;;;;0.00;0.00;;;12.20;99.90;;;;;;5088486;28;20499;-77
2022/08/02 02:53:32;;;;;;;0.00;0.00;;;12.20;99.90;;;;;;5071822;28;20144;-78
2022/08/02 02:55:58;;;;;;;0.35;0.35;;;12.10;99.90;;;;;;5071807;28;20045;-77
2022/08/02 02:58:24;;;;;;;0.00;0.00;;;12.20;99.90;;;;;;5088763;28;20047;-77
2022/08/02 03:03:36;;;;;;;0.00;0.00;;;12.20;99.90;;;;;;5088854;28;20048;-78
2022/08/02 03:06:02;;;;;;;0.10;0.10;;;12.30;99.90;;;;;;5070964;28;20373;-77
2022/08/02 03:08:28;;;;;;;0.00;0.00;;;12.30;99.90;;;;;;5088063;28;20115;-78
2022/08/02 03:10:55;;;;;;;0.00;0.00;;;12.20;99.90;;;;;;5087958;28;20037;-77
2022/08/02 03:13:21;;;;;;;0.00;0.00;;;12.20;99.90;;;;;;5038192;28;20052;-78
2022/08/02 03:15:52;;;;;;;0.00;0.00;;;12.20;99.90;;;;;;5071302;28;20060;-78
2022/08/02 03:18:35;;;;;;;0.30;0.00;;;12.20;99.90;;;;;;5071641;28;20048;-78
2022/08/02 03:21:03;;;;;;;0.00;0.00;;;12.20;99.90;;;;;;5087984;28;20401;-78
2022/08/02 03:23:30;;;;;;;0.00;0.00;;;12.20;99.90;;;;;;5088056;28;20049;-77
2022/08/02 03:25:56;;;;;;;0.00;0.00;;;12.10;99.90;;;;;;5087865;28;20090;-77
2022/08/02 03:28:22;;;;;;;0.10;0.00;;;12.10;99.90;;;;;;5071010;28;20102;-77
2022/08/02 03:30:48;;;;;;;0.00;0.00;;;12.20;99.90;;;;;;5070650;28;20045;-77
2022/08/02 03:33:14;;;;;;;0.00;0.00;;;12.10;99.90;;;;;;5087823;28;20052;-77
2022/08/02 03:35:41;;;;;;;0.00;0.00;;;12.20;99.90;;;;;;5070442;28;20067;-77
2022/08/02 03:38:08;;;;;;;0.00;0.00;;;12.10;99.90;;;;;;5087634;28;20045;-77
2022/08/02 03:40:35;;;;;;;0.00;0.00;;;12.10;99.90;;;;;;5087719;28;20045;-78
2022/08/02 03:43:02;;;;;;;0.10;0.10;;;12.10;99.90;;;;;;5087348;28;20511;-77
2022/08/02 03:45:28;;;;;;;0.00;0.00;;;12.10;99.90;;;;;;5087409;28;20497;-78
2022/08/02 03:47:55;;;;;;;0.00;0.00;;;12.10;99.90;;;;;;5070564;28;20107;-78
2022/08/02 03:50:24;;;;;;;1.27;0.00;;;12.10;99.90;;;;;;5086956;28;20045;-78
2022/08/02 03:52:51;;;;;;;0.03;0.03;;;12.10;99.90;;;;;;5070643;28;20045;-78
2022/08/02 03:55:16;;;;;;;0.52;0.22;;;12.10;99.90;;;;;;5070344;28;20045;-78
2022/08/02 03:57:42;;;;;;;0.00;0.00;;;12.00;99.90;;;;;;5070345;28;20156;-78
2022/08/02 04:00:10;;;;;;;0.00;0.00;;;12.10;99.90;;;;;;5087146;28;20099;-78
2022/08/02 04:02:36;;;;;;;0.00;0.00;;;12.10;99.90;;;;;;5087039;28;20095;-78
2022/08/02 04:05:03;;;;;;;0.10;0.05;;;12.10;99.90;;;;;;5086718;28;20045;-78
2022/08/02 04:07:29;;;;;;;0.08;0.00;;;12.10;99.90;;;;;;5087897;28;20056;-78
2022/08/02 04:09:54;;;;;;;0.00;0.00;;;12.10;99.90;;;;;;5070615;28;20052;-78
2022/08/02 04:12:20;;;;;;;0.00;0.00;;;12.10;99.90;;;;;;5053898;28;20049;-78
2022/08/02 04:14:46;;;;;;;0.00;0.00;;;12.10;99.90;;;;;;5070349;28;20393;-78
2022/08/02 04:17:13;;;;;;;0.00;0.00;;;12.20;99.90;;;;;;5069906;28;20044;-78
2022/08/02 04:19:43;;;;;;;0.00;0.00;;;12.20;99.90;;;;;;5069552;28;20064;-77
2022/08/02 04:22:16;;;;;;;1.45;0.40;;;12.20;99.90;;;;;;5069901;28;20451;-77
2022/08/02 04:24:47;;;;;;;0.03;0.03;;;12.20;99.90;;;;;;5086836;28;20132;-78
2022/08/02 04:27:14;;;;;;;0.00;0.00;;;12.30;99.90;;;;;;5086988;28;20060;-78
2022/08/02 04:29:41;;;;;;;0.10;0.10;;;12.30;99.90;;;;;;5070007;28;20133;-78
2022/08/02 04:32:07;;;;;;;0.00;0.00;;;12.40;99.90;;;;;;5086548;28;20084;-78
2022/08/02 04:34:33;;;;;;;0.00;0.00;;;12.40;99.90;;;;;;5070052;28;20479;-78
2022/08/02 04:36:59;;;;;;;0.00;0.00;;;12.50;99.90;;;;;;5087209;28;20135;-78
2022/08/02 04:39:25;;;;;;;0.00;0.00;;;12.50;99.90;;;;;;5086711;28;20051;-78
2022/08/02 04:41:51;;;;;;;0.00;0.00;;;12.50;99.90;;;;;;5086419;28;20045;-77
2022/08/02 04:44:17;;;;;;;0.00;0.00;;;12.60;99.90;;;;;;5086196;28;20051;-77
2022/08/02 04:46:44;;;;;;;0.00;0.00;;;12.60;99.90;;;;;;5086365;28;20053;-77
2022/08/02 04:49:10;;;;;;;0.00;0.00;;;12.60;99.90;;;;;;5036296;28;20052;-77
2022/08/02 04:51:37;;;;;;;0.00;0.00;;;12.60;99.90;;;;;;5086019;28;20091;-77
2022/08/02 04:54:04;;;;;;;0.00;0.00;;;12.70;99.90;;;;;;5086461;28;20502;-77
2022/08/02 04:56:29;;;;;;;0.00;0.00;;;12.70;99.90;;;;;;5086487;28;20064;-77
2022/08/02 04:58:55;;;;;;;0.00;0.00;;;12.80;99.90;;;;;;5086233;28;20465;-77
2022/08/02 05:01:21;;;;;;;0.00;0.00;;;12.80;99.90;;;;;;5086098;28;20092;-77
2022/08/02 05:03:46;;;;;;;0.00;0.00;;;12.80;99.90;;;;;;5052845;28;20050;-77
2022/08/02 05:06:12;;;;;;;0.00;0.00;;;12.80;99.90;;;;;;5085813;28;20056;-78
2022/08/02 05:08:39;;;;;;;0.00;0.00;;;12.90;99.90;;;;;;5068742;28;20432;-78
2022/08/02 05:11:05;;;;;;;0.10;0.05;;;12.90;99.90;;;;;;5086148;28;20055;-78
2022/08/02 05:13:30;;;;;;;0.00;0.00;;;12.90;99.90;;;;;;5052393;28;20151;-78
2022/08/02 05:16:00;;;;;;;0.20;0.20;;;13.00;99.90;;;;;;5085903;28;20044;-78
2022/08/02 05:18:27;;;;;;;0.00;0.00;;;13.00;99.90;;;;;;5036568;28;20527;-78
2022/08/02 05:20:52;;;;;;;0.00;0.00;;;13.00;99.90;;;;;;5069166;28;20090;-78
2022/08/02 05:23:18;;;;;;;0.13;0.00;;;13.10;99.90;;;;;;5085972;28;20044;-78
2022/08/02 05:25:44;;;;;;;0.00;0.00;;;13.10;99.90;;;;;;5085816;28;20045;-78
2022/08/02 05:28:09;;;;;;;0.00;0.00;;;13.20;99.90;;;;;;5069025;28;20037;-78
2022/08/02 05:30:35;;;;;;;0.00;0.00;;;13.20;99.90;;;;;;5085688;28;20077;-78
2022/08/02 05:33:01;;;;;;;0.00;0.00;;;13.30;99.90;;;;;;5089051;28;20051;-78
2022/08/02 05:35:26;;;;;;;0.13;0.13;;;13.30;99.90;;;;;;5073122;28;20057;-78
2022/08/02 05:37:52;;;;;;;0.73;0.28;;;13.40;99.90;;;;;;5073038;28;20049;-78
2022/08/02 05:40:18;;;;;;;0.10;0.10;;;13.50;99.90;;;;;;5089706;28;20049;-78
2022/08/02 05:42:44;;;;;;;0.38;0.38;;;13.50;99.90;;;;;;5089375;28;20473;-78
2022/08/02 05:45:10;;;;;;;0.00;0.00;;;13.60;99.90;;;;;;5072403;28;20053;-78
2022/08/02 05:47:37;;;;;;;0.00;0.00;;;13.70;99.90;;;;;;5072972;28;20060;-78
2022/08/02 05:50:04;;;;;;;0.55;0.00;;;13.80;99.90;;;;;;5089402;28;20489;-78
2022/08/02 05:52:47;;;;;;;0.00;0.00;;;13.80;99.90;;;;;;5089476;28;20041;-78
2022/08/02 05:55:17;;;;;;;0.10;0.10;;;14.00;99.90;;;;;;5072399;28;20492;-78
2022/08/02 05:58:01;;;;;;;0.00;0.00;;;14.00;99.90;;;;;;5089306;28;20206;-78
2022/08/02 06:00:30;;;;;;;0.00;0.00;;;14.20;99.90;;;;;;5089262;28;20045;-78
2022/08/02 06:03:03;;;;;;;0.00;0.00;;;14.20;99.90;;;;;;5072778;28;20061;-78
2022/08/02 06:05:34;;;;;;;0.00;0.00;;;14.40;99.90;;;;;;5072305;28;20060;-78
2022/08/02 06:08:01;;;;;;;0.00;0.00;;;14.40;99.90;;;;;;5105829;28;20443;-78
2022/08/02 06:10:29;;;;;;;0.00;0.00;;;14.50;99.90;;;;;;5089802;28;20187;-78
2022/08/02 06:13:06;;;;;;;0.00;0.00;;;14.60;99.90;;;;;;5072551;28;20044;-78
2022/08/02 06:15:32;;;;;;;0.10;0.10;;;14.70;99.90;;;;;;5072674;28;20049;-78
2022/08/02 06:17:59;;;;;;;0.00;0.00;;;14.80;99.90;;;;;;5089225;28;20127;-78
2022/08/02 06:20:26;;;;;;;2.47;0.35;;;14.80;99.90;;;;;;5072123;28;20103;-78
2022/08/02 06:22:53;;;;;;;0.00;0.00;;;14.90;99.90;;;;;;5072490;28;20081;-78
2022/08/02 06:25:20;;;;;;;0.00;0.00;;;15.10;99.90;;;;;;5088742;28;20481;-78
2022/08/02 06:27:49;;;;;;;0.00;0.00;;;15.20;99.90;;;;;;5072441;28;20064;-78
2022/08/02 06:30:15;;;;;;;6.32;0.30;;;15.20;99.90;;;;;;5072281;28;20408;-78
2022/08/02 06:32:42;;;;;;;0.75;0.28;;;15.30;99.90;;;;;;5088777;28;20140;-78
2022/08/02 06:35:08;;;;;;;2.03;0.30;;;15.40;99.90;;;;;;5071913;28;20139;-78
2022/08/02 06:37:44;;;;;;;0.00;0.00;;;15.50;99.90;;;;;;5054769;28;20471;-78
2022/08/02 06:40:16;;;;;;;0.00;0.00;;;15.60;99.90;;;;;;5088605;28;20045;-78
2022/08/02 06:42:46;;;;;;;0.00;0.00;;;15.80;99.90;;;;;;5088541;28;20051;-78
2022/08/02 06:45:12;;;;;;;0.00;0.00;;;15.90;99.90;;;;;;5088348;28;20045;-78
2022/08/02 06:47:37;;;;;;;0.00;0.00;;;16.10;99.90;;;;;;5088633;28;20531;-78
2022/08/02 06:50:04;;;;;;;0.10;0.10;;;16.20;99.90;;;;;;5089102;28;20033;-78
2022/08/02 06:52:30;;;;;;;0.00;0.00;;;16.30;99.90;;;;;;5089118;28;20044;-78
2022/08/02 06:55:00;;;;;;;1.15;0.00;;;16.40;99.90;;;;;;5088474;28;20048;-78
2022/08/02 06:57:27;;;;;;;0.10;0.00;;;16.60;99.90;;;;;;5088617;28;20396;-78
2022/08/02 06:59:53;;;;;;;0.00;0.00;;;16.70;99.90;;;;;;5071598;28;20064;-78
2022/08/02 07:02:19;;;;;;;0.00;0.00;;;16.80;99.90;;;;;;5054685;28;20037;-78
2022/08/02 07:04:45;;;;;;;0.00;0.00;;;16.90;99.90;;;;;;5071319;28;20511;-78
2022/08/02 07:07:10;;;;;;;0.00;0.00;;;17.00;99.90;;;;;;5071040;28;20056;-78
2022/08/02 07:09:36;;;;;;;0.00;0.00;;;17.10;99.90;;;;;;5088305;28;20077;-79
2022/08/02 07:12:02;;;;;;;0.00;0.00;;;17.20;99.90;;;;;;5087981;28;20041;-78
2022/08/02 07:14:28;;;;;;;0.00;0.00;;;17.40;99.90;;;;;;5088118;28;20485;-79
2022/08/02 07:16:54;;;;;;;0.00;0.00;;;17.50;99.90;;;;;;5071228;28;20055;-79
2022/08/02 07:19:19;;;;;;;0.00;0.00;;;17.60;99.90;;;;;;5071407;28;20060;-79
2022/08/02 07:21:45;;;;;;;0.00;0.00;;;17.80;99.90;;;;;;5070952;28;20048;-79
2022/08/02 07:24:11;;;;;;;0.00;0.00;;;17.90;99.90;;;;;;5088295;28;20044;-79
2022/08/02 07:26:36;;;;;;;0.00;0.00;;;18.10;99.90;;;;;;5087968;28;20051;-79
2022/08/02 07:29:02;;;;;;;0.00;0.00;;;18.40;99.90;;;;;;5087862;28;20033;-79
2022/08/02 07:31:28;;;;;;;0.00;0.00;;;18.50;99.90;;;;;;5070866;28;20045;-79
2022/08/02 07:33:53;;;;;;;0.00;0.00;;;18.70;99.90;;;;;;5071380;28;20392;-79
2022/08/02 07:36:19;;;;;;;0.00;0.00;;;18.80;99.90;;;;;;5088201;28;20041;-79
2022/08/02 07:38:45;;;;;;;0.00;0.00;;;18.80;99.90;;;;;;5054406;28;20080;-79
2022/08/02 07:41:10;;;;;;;0.00;0.00;;;18.80;99.90;;;;;;5087997;28;20144;-79
2022/08/02 07:43:36;;;;;;;0.00;0.00;;;18.80;99.90;;;;;;5087595;28;20067;-79
2022/08/02 07:46:02;;;;;;;0.00;0.00;;;18.80;99.90;;;;;;5071048;28;20099;-79
2022/08/02 07:48:27;;;;;;;0.00;0.00;;;18.90;99.90;;;;;;5070628;28;20171;-79
2022/08/02 07:50:53;;;;;;;0.00;0.00;;;18.90;99.90;;;;;;5087481;28;20131;-79
2022/08/02 07:53:19;;;;;;;0.22;0.00;;;19.00;99.90;;;;;;5070948;28;20049;-79
2022/08/02 07:55:44;;;;;;;0.00;0.00;;;19.10;99.90;;;;;;5086562;28;20045;-79
2022/08/02 07:58:11;;;;;;;0.00;0.00;;;19.30;99.90;;;;;;5087631;28;20132;-79
2022/08/02 08:00:36;;;;;;;0.38;0.38;;;19.30;99.90;;;;;;5087420;28;20509;-79
2022/08/02 08:03:02;;;;;;;0.00;0.00;;;19.50;99.90;;;;;;5070625;28;20087;-79
2022/08/02 08:05:28;;;;;;;0.00;0.00;;;19.60;99.90;;;;;;5087526;28;20436;-80
2022/08/02 08:07:53;;;;;;;0.00;0.00;;;19.70;99.90;;;;;;5070925;28;20057;-80
2022/08/02 08:10:19;;;;;;;0.00;0.00;;;19.90;99.90;;;;;;5053613;28;20041;-79
2022/08/02 08:12:45;;;;;;;0.00;0.00;;;20.00;99.90;;;;;;5070343;28;20139;-80
2022/08/02 08:15:10;;;;;;;0.00;0.00;;;20.10;99.90;;;;;;5087943;28;20110;-80
2022/08/02 08:17:37;;;;;;;0.00;0.00;;;20.20;99.90;;;;;;5087369;28;20393;-80
2022/08/02 08:20:04;;;;;;;0.00;0.00;;;20.30;99.90;;;;;;5087168;28;20239;-79
2022/08/02 08:22:29;;;;;;;0.35;0.28;;;20.40;99.90;;;;;;5086949;28;20040;-80
2022/08/02 08:24:55;;;;;;;0.00;0.00;;;20.50;99.90;;;;;;5070537;28;20057;-80
2022/08/02 08:27:21;;;;;;;0.00;0.00;;;20.60;99.90;;;;;;5086487;28;20466;-80
2022/08/02 08:29:48;;;;;;;0.00;0.00;;;20.70;99.90;;;;;;5070223;28;20056;-80
2022/08/02 08:32:14;;;;;;;0.00;0.00;;;20.80;99.90;;;;;;5087332;28;20400;-80
2022/08/02 08:34:40;;;;;;;0.45;0.15;;;20.90;99.90;;;;;;5070079;28;20056;-80
2022/08/02 08:37:06;;;;;;;0.00;0.00;;;21.00;99.90;;;;;;5086856;28;20047;-80
2022/08/02 08:39:31;;;;;;;0.25;0.25;;;21.20;99.90;;;;;;5087340;28;20082;-80
2022/08/02 08:41:57;;;;;;;0.00;0.00;;;21.30;99.90;;;;;;5070251;28;20060;-79
2022/08/02 08:44:23;;;;;;;0.32;0.10;;;21.50;99.90;;;;;;5069954;28;20049;-80
2022/08/02 08:46:49;;;;;;;0.00;0.00;;;21.60;99.80;;;;;;5070161;28;20091;-80
2022/08/02 08:49:28;;;;;;;0.08;0.08;;;21.60;99.90;;;;;;5070318;28;20064;-80
2022/08/02 08:51:55;;;;;;;0.00;0.00;;;21.60;99.90;;;;;;5070184;28;20041;-80
2022/08/02 08:54:24;;;;;;;0.00;0.00;;;21.70;99.90;;;;;;5069956;28;20045;-80
2022/08/02 08:56:52;;;;;;;0.20;0.15;;;21.80;99.20;;;;;;5086800;28;20401;-80
2022/08/02 08:59:18;;;;;;;0.00;0.00;;;21.90;98.50;;;;;;5086575;28;20063;-79
2022/08/02 09:01:45;;;;;;;0.00;0.00;;;22.00;95.30;;;;;;5069919;28;20477;-79
2022/08/02 09:04:11;;;;;;;0.00;0.00;;;22.10;96.10;;;;;;5086625;28;20044;-80
2022/08/02 09:06:38;;;;;;;0.00;0.00;;;22.20;96.70;;;;;;5087566;28;20053;-79
2022/08/02 09:09:04;;;;;;;0.15;0.05;;;22.30;96.80;;;;;;5090928;28;20088;-81
2022/08/02 09:11:31;;;;;;;0.00;0.00;;;22.40;97.30;;;;;;5091188;28;20080;-80
2022/08/02 09:13:59;;;;;;;0.00;0.00;;;22.50;96.90;;;;;;5074739;28;20061;-80
2022/08/02 09:16:42;;;;;;;0.00;0.00;;;22.60;95.80;;;;;;5074500;28;20139;-80
2022/08/02 09:19:24;;;;;;;0.10;0.10;;;22.70;97.00;;;;;;5074297;28;20053;-80
2022/08/02 09:22:06;;;;;;;0.00;0.00;;;22.70;96.80;;;;;;5090870;28;20445;-80
2022/08/02 09:24:52;;;;;;;0.00;0.00;;;23.00;95.90;;;;;;5074256;28;20049;-80
2022/08/02 09:27:20;;;;;;;0.00;0.00;;;23.10;96.00;;;;;;5073554;28;20056;-80
2022/08/02 09:29:48;;;;;;;0.03;0.00;;;23.30;96.20;;;;;;5073647;28;20045;-80
2022/08/02 09:32:16;;;;;;;0.00;0.00;;;23.30;95.80;;;;;;5091070;28;20076;-80
2022/08/02 09:34:43;;;;;;;0.00;0.00;;;23.50;95.70;;;;;;5074464;28;20049;-80
2022/08/02 09:37:25;;;;;;;0.00;0.00;;;23.60;95.20;;;;;;5091218;28;20114;-80
2022/08/02 09:39:51;;;;;;;1.08;0.28;;;23.80;96.30;;;;;;5090981;28;20067;-81
2022/08/02 09:42:17;;;;;;;0.00;0.00;;;24.00;96.80;;;;;;5090373;28;20428;-80
2022/08/02 09:44:56;;;;;;;0.00;0.00;;;24.10;96.20;;;;;;5090012;28;20041;-80
2022/08/02 09:47:26;;;;;;;0.00;0.00;;;24.20;94.40;;;;;;5090015;28;20493;-80
2022/08/02 09:49:56;;;;;;;0.00;0.00;;;24.20;94.90;;;;;;5089907;28;20055;-80
2022/08/02 09:52:26;;;;;;;0.10;0.10;;;24.40;94.80;;;;;;5073429;28;20041;-80
2022/08/02 09:54:52;;;;;;;0.00;0.00;;;24.40;94.40;;;;;;5072980;28;20044;-80
2022/08/02 09:57:27;;;;;;;0.00;0.00;;;24.50;94.10;;;;;;5073240;28;20099;-80
2022/08/02 09:59:56;;;;;;;;;;;24.60;93.00;;;;;;5040317;28;20040;-80
2022/08/02 10:02:22;;;;;;;0.10;0.10;;;24.60;94.10;;;;;;5090372;28;19975;-80
2022/08/02 10:04:48;;;;;;;0.10;0.10;;;24.70;93.70;;;;;;5073142;28;20049;-80
2022/08/02 10:07:15;;;;;;;0.10;0.10;;;24.70;94.40;;;;;;5089388;28;20447;-80
2022/08/02 10:09:41;;;;;;;0.10;0.10;;;24.70;93.80;;;;;;5089395;28;20092;-80
2022/08/02 10:12:08;;;;;;;0.00;0.00;;;24.60;94.80;;;;;;5056529;28;20099;-79
2022/08/02 10:14:34;;;;;;;0.20;0.08;;;24.70;95.40;;;;;;5072979;28;20053;-80
2022/08/02 10:17:00;;;;;;;0.00;0.00;;;24.80;97.50;;;;;;5056155;28;20048;-81
2022/08/02 10:19:26;;;;;;;0.00;0.00;;;24.90;96.20;;;;;;5088850;28;20115;-81
2022/08/02 10:21:57;;;;;;;0.00;0.00;;;25.00;97.70;;;;;;5089880;28;20488;-80
2022/08/02 10:24:28;;;;;;;0.00;0.00;;;25.00;96.00;;;;;;5073013;28;20118;-81
2022/08/02 10:26:55;;;;;;;0.00;0.00;;;25.00;96.30;;;;;;5089899;28;20076;-80
2022/08/02 10:29:29;;;;;;;0.00;0.00;;;25.00;96.30;;;;;;5072344;28;20609;-81
2022/08/02 10:32:00;;;;;;;;;;;25.10;96.50;;;;;;5073467;28;20045;-81
2022/08/02 10:34:31;;;;;;;0.00;0.00;;;25.10;96.70;;;;;;5072498;28;20383;-80
2022/08/02 10:37:03;;;;;;;0.00;0.00;;;25.10;96.80;;;;;;5089464;28;20045;-81
2022/08/02 10:39:41;;;;;;;0.00;0.00;;;25.20;96.20;;;;;;5089640;28;20048;-80
2022/08/02 10:42:07;;;;;;;0.20;0.20;;;25.40;96.50;;;;;;5089403;28;20037;-80
2022/08/02 10:44:33;;;;;;;0.10;0.10;;;25.40;96.40;;;;;;5072081;28;20041;-81
2022/08/02 10:47:16;;;;;;;0.88;0.30;;;25.40;95.60;;;;;;5071982;28;20049;-80
2022/08/02 10:49:56;;;;;;;0.13;0.13;;;25.60;96.00;;;;;;5072188;28;20033;-80
2022/08/02 10:52:24;;;;;;;0.00;0.00;;;25.90;96.40;;;;;;5088807;28;20055;-81
2022/08/02 10:55:01;;;;;;;0.00;0.00;;;26.20;95.90;;;;;;5088520;28;20396;-80
2022/08/02 10:57:32;;;;;;;0.00;0.00;;;26.30;95.30;;;;;;5089156;28;20049;-80
2022/08/02 11:00:11;;;;;;;0.00;0.00;;;26.40;95.20;;;;;;5089243;28;20128;-80
2022/08/02 11:02:42;;;;;;;0.10;0.03;;;26.50;95.30;;;;;;5071794;28;20055;-80
2022/08/02 11:05:09;;;;;;;0.00;0.00;;;26.40;94.30;;;;;;5088250;28;20049;-80
2022/08/02 11:07:39;;;;;;;0.00;0.00;;;26.50;94.60;;;;;;5071806;28;20455;-80
2022/08/02 11:10:30;;;;;;;0.00;0.00;;;26.50;94.60;;;;;;5088694;28;20144;-80
2022/08/02 11:13:06;;;;;;;1.10;0.05;;;26.70;96.40;;;;;;5071883;28;20048;-80
2022/08/02 11:15:51;;;;;;;0.00;0.00;;;27.00;96.10;;;;;;5071921;28;20443;-80
2022/08/02 11:18:17;;;;;;;0.00;0.00;;;27.10;95.80;;;;;;5088362;28;20506;-80
2022/08/02 11:20:43;;;;;;;0.00;0.00;;;27.00;90.90;;;;;;5088918;28;20053;-80
2022/08/02 11:23:37;;;;;;;0.00;0.00;;;27.00;92.30;;;;;;5088358;28;20051;-80
2022/08/02 11:26:28;;;;;;;0.05;0.05;;;27.00;93.70;;;;;;5087915;28;20055;-80
2022/08/02 11:28:55;;;;;;;0.00;0.00;;;26.90;92.90;;;;;;5088344;28;20053;-80
2022/08/02 11:31:20;;;;;;;0.00;0.00;;;27.10;94.20;;;;;;5071282;28;20044;-80
2022/08/02 11:33:48;;;;;;;0.00;0.00;;;27.20;92.40;;;;;;5088025;28;20087;-81
2022/08/02 11:36:15;;;;;;;0.00;0.00;;;27.20;90.90;;;;;;5071498;28;20049;-81
2022/08/02 11:38:41;;;;;;;0.20;0.00;;;27.30;92.80;;;;;;5071465;28;20048;-81
2022/08/02 11:41:07;;;;;;;0.00;0.00;;;27.20;92.20;;;;;;5071216;28;20044;-81
2022/08/02 11:43:32;;;;;;;0.00;0.00;;;27.30;93.70;;;;;;5071416;28;20049;-81
2022/08/02 11:46:12;;;;;;;0.35;0.25;;;27.40;92.90;;;;;;5071898;28;20106;-82
2022/08/02 11:48:39;;;;;;;0.00;0.00;;;27.50;92.90;;;;;;5037450;28;20051;-81
2022/08/02 11:51:16;;;;;;;0.00;0.00;;;27.50;92.30;;;;;;5087687;28;20041;-81
2022/08/02 11:53:50;;;;;;;2.83;0.90;;;27.50;90.80;;;;;;5087830;28;20037;-80
2022/08/02 11:56:17;;;;;;;;;;;27.50;90.40;;;;;;5071251;28;20109;-81
2022/08/02 11:59:06;;;;;;;0.00;0.00;;;27.50;91.40;;;;;;5087516;28;20008;-81
2022/08/02 12:01:33;;;;;;;0.00;0.00;;;27.50;90.60;;;;;;5087327;28;20428;-81
2022/08/02 12:04:01;;;;;;;0.52;0.45;;;27.40;90.60;;;;;;5087680;28;20049;-81
2022/08/02 12:06:27;;;;;;;0.00;0.00;;;27.30;87.40;;;;;;5070401;28;20060;-81
2022/08/02 12:09:10;;;;;;;0.00;0.00;;;27.20;85.10;;;;;;5087987;28;20052;-81
2022/08/02 12:11:36;;;;;;;0.00;0.00;;;27.20;86.60;;;;;;5070727;28;20067;-81
2022/08/02 12:14:05;;;;;;;0.00;0.00;;;27.20;87.00;;;;;;5087743;28;20492;-81
2022/08/02 12:19:26;;;;;;;0.00;0.00;;;27.40;88.10;;;;;;5087882;28;20103;-81
2022/08/02 12:22:12;;;;;;;1.85;0.40;;;27.60;88.60;;;;;;5071071;28;20041;-82
2022/08/02 12:24:40;;;;;;;1.45;0.20;;;27.80;89.30;;;;;;5087701;28;20076;-82
2022/08/02 12:27:06;;;;;;;0.00;0.00;;;27.80;87.30;;;;;;5087326;28;20091;-82
2022/08/02 12:29:34;;;;;;;0.00;0.00;;;27.90;90.00;;;;;;5054862;28;20484;-81
2022/08/02 12:32:00;;;;;;;0.10;0.00;;;28.10;90.80;;;;;;5070312;28;20057;-82
2022/08/02 12:34:28;;;;;;;0.32;0.10;;;28.10;90.00;;;;;;5070139;28;20064;-81
2022/08/02 12:36:58;;;;;;;0.00;0.00;;;28.30;85.80;;;;;;5070484;28;20059;-82
2022/08/02 12:39:41;;;;;;;0.47;0.15;;;28.40;86.80;;;;;;5069957;28;20074;-81
2022/08/02 12:42:09;;;;;;;0.00;0.00;;;28.40;87.50;;;;;;5086821;28;20049;-81
2022/08/02 12:44:38;;;;;;;0.00;0.00;;;28.40;87.10;;;;;;5086315;28;20493;-81
2022/08/02 12:47:06;;;;;;;0.00;0.00;;;28.50;87.20;;;;;;5087004;28;20090;-81
2022/08/02 12:49:32;;;;;;;0.00;0.00;;;28.50;89.70;;;;;;5086854;28;20069;-82
2022/08/02 12:51:58;;;;;;;0.00;0.00;;;28.40;86.80;;;;;;5069830;28;20053;-81
2022/08/02 12:54:29;;;;;;;0.05;0.05;;;28.20;85.40;;;;;;5086910;28;20041;-81
2022/08/02 12:56:55;;;;;;;0.55;0.32;;;27.90;86.80;;;;;;5087340;28;20047;-81
2022/08/02 12:59:36;;;;;;;0.00;0.00;;;27.70;85.40;;;;;;5070050;28;20489;-81
2022/08/02 13:02:04;;;;;;;0.00;0.00;;;27.70;85.80;;;;;;5069572;28;20513;-81
2022/08/02 13:04:33;;;;;;;0.00;0.00;;;27.70;87.70;;;;;;5036778;28;20145;-82